This is the latest recevied weather packets stored in our database for station/object WX3I. If no packets are shown the sender has not sent any weather packets the latest 10 day(s).
| Time | Temp. | Humidity | Pressure | Rain* | Wind** | Luminosity | Snow |
|---|---|---|---|---|---|---|---|
| 1777322704 | 20° C | 40% | 1024.4 hPa | 0 mm | - | 720 W/m² | - |
| 1777316705 | 19.44° C | 45% | 1024.5 hPa | 0 mm | - | 1043 W/m² | - |
| 1777313705 | 18.89° C | 45% | 1024.6 hPa | 0 mm | - | 1133 W/m² | - |
| 1777311905 | 18.33° C | 48% | 1025.1 hPa | 0 mm | - | 1157 W/m² | - |
| 1777311305 | 18.33° C | 48% | 1025.1 hPa | 0 mm | - | 1160 W/m² | - |
| 1777307104 | 17.78° C | 49% | 1025.6 hPa | 0 mm | - | 1104 W/m² | - |
| 1777302604 | 15.56° C | 63% | 1026 hPa | 0 mm | - | 916 W/m² | - |
| 1777301404 | 15° C | 63% | 1026.1 hPa | 0 mm | - | 849 W/m² | - |
| 1777300205 | 13.89° C | 68% | 1026 hPa | 0 mm | - | 777 W/m² | - |
| 1777299904 | 13.89° C | 71% | 1026 hPa | 0 mm | - | 758 W/m² | - |
| 1777299304 | 13.33° C | 71% | 1025.9 hPa | 0 mm | - | 720 W/m² | - |
| 1777296904 | 12.22° C | 76% | 1025.7 hPa | 0 mm | - | 565 W/m² | - |
| 1777296304 | 11.67° C | 79% | 1025.7 hPa | 0 mm | - | 525 W/m² | - |
| 1777295105 | 11.67° C | 79% | 1025.5 hPa | 0 mm | - | 447 W/m² | - |
| 1777294513 | 11.67° C | 79% | 1025.3 hPa | 0 mm | - | 409 W/m² | - |
| 1777294204 | 11.11° C | 81% | 1025.3 hPa | 0 mm | - | 390 W/m² | - |
| 1777293604 | 10° C | 83% | 1025.2 hPa | 0 mm | - | 352 W/m² | - |
| 1777290007 | 6.67° C | 97% | 1024.7 hPa | 0 mm | - | 149 W/m² | - |
| 1777289704 | 6.11° C | 97% | 1024.7 hPa | 0 mm | - | 134 W/m² | - |
| 1777288805 | 5.56° C | 97% | 1024.6 hPa | 0 mm | - | 65 W/m² | - |
| 1777287004 | 5° C | 96% | 1024.5 hPa | 0 mm | - | 8 W/m² | - |
| 1777286105 | 5° C | 96% | 1024.2 hPa | 0 mm | - | 21 W/m² | - |
| 1777285504 | 5.56° C | 96% | 1024.1 hPa | 0 mm | - | 14 W/m² | - |
| 1777284004 | 5° C | 96% | 1023.9 hPa | 0 mm | - | 0 W/m² | - |
| 1777281604 | 5.56° C | 96% | 1024 hPa | 0 mm | - | 0 W/m² | - |
* Rain latest hour (hover to see other rain measurements)
** Current wind speed in m/s (hover to see current wind gust speed)